Página principal
METAR-TAF:

METAR-TAF

Aeroportos :

Amã, Jordânia

latitude: 31-59N, longitude: 035-59E, altura: 767 m

Observação actual do tempo

O boletim foi feito há 12 minutos, às 18:00 UTC
Vento 4 kt de oes-sudoeste
Temperatura 20°C
Humidade 83%
Pressão 1015 hPa
Visibilidade: 4000 m
poeira extensa

METAR: OJAM 171800Z 25004KT 4000 DU NSC 20/17 Q1015 NOSIG

Hora: 21:12 (18:12 UTC)

Previsão

O boletim foi feito há 1 hora e 27 minutos, às 16:45 UTC
Previsão válida de 17 às 18 UTC a 18 às 24 UTC
Vento 7 kt de oes-noroeste
Visibilidade: 4000 m
Poucas nuvensa uma altura de 3000 ft
poeira extensa
Temporariamente
de 18 às 01 UTC a 18 às 06 UTC
Vento 2 kt com direcção variável
Visibilidade: 3000 m
Poucas nuvensa uma altura de 2500 ft
neblina
Temporariamente
de 18 às 12 UTC a 18 às 20 UTC
Visibilidade: 4000 m
Poucas nuvensa uma altura de 3500 ft
poeira extensa

TAF: OJAM 171645Z 1718/1824 30007KT 4000 DU FEW030 TEMPO 1801/1806 VRB02KT 3000 BR FEW025 TEMPO 1812/1820 4000 DU FEW035

Observações e previsões do tempo de mais de 4000 aeroportos (mensagens METAR e TAF).

As estações disponíveis são os pontos amarelos e vermelhos sobre o mapa.

Mova o rato sobre o mapa para ver o nome da estação.

Depois clique no ponto para visualizar as observações e previsões meteorológicas.

Para alterar o mapa : clique nos botões verdes com uma cruz preta para aumentar o zoom; no botão verde com uma pitada de zoom; ou nas setas verdes para mapas adjacentes.


METAR-TAF: